Time;durP1;ratioP1;P1;durP2;ratioP2;P2;SDS_P1;SDS_P2;PMS_P1;PMS_P2;Temp;Humidity;BMP_temperature;BMP_pressure;BME280_temperature;BME280_humidity;BME280_pressure;Samples;Min_cycle;Max_cycle;Signal;HPM_P1;HPM_P2
2021/04/10 00:02:28;;;;;;;3.20;1.35;;;17.80;53.20;;;;;;10483469;28;20111;-61
2021/04/10 00:07:29;;;;;;;4.13;1.40;;;17.70;53.10;;;;;;10501087;28;20455;-61
2021/04/10 00:12:29;;;;;;;3.70;1.30;;;17.80;53.10;;;;;;10483285;28;20029;-61
2021/04/10 00:17:30;;;;;;;2.38;1.33;;;17.70;53.00;;;;;;10500835;28;20109;-61
2021/04/10 00:22:31;;;;;;;3.95;1.60;;;17.70;53.00;;;;;;10480455;28;20429;-61
2021/04/10 00:27:31;;;;;;;2.65;1.40;;;17.70;53.00;;;;;;10500245;28;20438;-61
2021/04/10 00:32:32;;;;;;;2.00;1.23;;;17.70;52.90;;;;;;10499867;28;20100;-61
2021/04/10 00:37:37;;;;;;;3.33;1.40;;;17.70;52.90;;;;;;10499356;28;20049;-62
2021/04/10 00:42:38;;;;;;;2.85;0.85;;;17.70;52.80;;;;;;10475616;28;20036;-61
2021/04/10 00:47:39;;;;;;;2.63;1.17;;;17.70;52.90;;;;;;10499441;28;20040;-61
2021/04/10 00:52:41;;;;;;;2.25;1.00;;;17.70;53.40;;;;;;10499285;28;20021;-61
2021/04/10 00:57:42;;;;;;;2.78;1.23;;;17.70;52.70;;;;;;10481485;28;20032;-61
2021/04/10 01:02:43;;;;;;;2.47;1.27;;;17.80;52.70;;;;;;10498973;28;20357;-61
2021/04/10 01:07:43;;;;;;;4.82;1.05;;;17.80;52.70;;;;;;10464312;28;20028;-62
2021/04/10 01:12:57;;;;;;;1.77;1.05;;;17.70;52.60;;;;;;10480894;28;20035;-61
2021/04/10 01:18:27;;;;;;;4.43;1.40;;;17.80;52.60;;;;;;10498458;28;20480;-61
2021/04/10 01:23:52;;;;;;;;;;;17.80;53.20;;;;;;10483904;28;20048;-61
2021/04/10 01:29:08;;;;;;;2.10;1.10;;;17.70;52.50;;;;;;10479855;28;19917;-62
2021/04/10 01:34:27;;;;;;;2.30;1.30;;;17.70;52.50;;;;;;10480658;28;20401;-62
2021/04/10 01:39:31;;;;;;;2.27;1.00;;;17.70;52.40;;;;;;10479834;28;20044;-62
2021/04/10 01:44:32;;;;;;;3.60;1.50;;;17.70;52.50;;;;;;10480229;28;20048;-62
2021/04/10 01:49:34;;;;;;;4.00;1.33;;;17.70;52.40;;;;;;10471586;28;20032;-61
2021/04/10 01:54:37;;;;;;;2.40;1.17;;;17.70;52.30;;;;;;10479265;28;20025;-62
2021/04/10 01:59:44;;;;;;;2.17;1.02;;;17.70;52.30;;;;;;10479657;28;20067;-61
2021/04/10 02:04:47;;;;;;;1.88;0.98;;;17.80;52.20;;;;;;10479319;28;20107;-62
2021/04/10 02:09:51;;;;;;;2.47;1.30;;;17.80;52.20;;;;;;10479288;28;20036;-61
2021/04/10 02:14:52;;;;;;;1.77;0.85;;;17.70;52.00;;;;;;10496854;28;20031;-62
2021/04/10 02:19:53;;;;;;;2.10;1.10;;;17.70;52.10;;;;;;10469162;28;20045;-62
2021/04/10 02:24:53;;;;;;;3.08;1.20;;;17.70;52.00;;;;;;10496635;28;20048;-61
2021/04/10 02:29:54;;;;;;;2.15;0.95;;;17.70;52.00;;;;;;10478769;28;20086;-62
2021/04/10 02:35:21;;;;;;;1.65;0.73;;;17.70;52.00;;;;;;10478407;28;20040;-62
2021/04/10 02:40:30;;;;;;;2.50;1.48;;;17.70;52.00;;;;;;10494041;28;20040;-61
2021/04/10 02:45:32;;;;;;;2.65;1.33;;;17.70;52.00;;;;;;10485059;28;20043;-61
2021/04/10 02:50:35;;;;;;;3.17;1.02;;;17.70;51.90;;;;;;10486379;28;20535;-61
2021/04/10 02:55:40;;;;;;;2.05;1.13;;;17.80;52.00;;;;;;10463399;28;20031;-61
2021/04/10 03:00:44;;;;;;;4.47;1.35;;;17.80;51.90;;;;;;10503672;28;20027;-62
2021/04/10 03:05:46;;;;;;;2.80;1.45;;;17.80;51.80;;;;;;10486269;28;20111;-62
2021/04/10 03:10:49;;;;;;;1.55;0.90;;;17.80;51.90;;;;;;10503738;28;20056;-62
2021/04/10 03:15:53;;;;;;;2.40;1.33;;;17.70;51.80;;;;;;10485639;28;20090;-62
2021/04/10 03:20:54;;;;;;;1.70;1.08;;;17.80;51.80;;;;;;10484084;28;20377;-62
2021/04/10 03:25:58;;;;;;;5.53;1.30;;;17.70;51.80;;;;;;10484903;28;20064;-61
2021/04/10 03:31:02;;;;;;;3.28;1.10;;;17.80;51.80;;;;;;10485053;28;20035;-62
2021/04/10 03:36:04;;;;;;;2.10;0.98;;;17.70;51.70;;;;;;10484807;28;20052;-61
2021/04/10 03:41:07;;;;;;;2.88;1.30;;;17.70;51.70;;;;;;10468032;28;20020;-62
2021/04/10 03:46:08;;;;;;;1.50;0.98;;;17.70;51.70;;;;;;10484149;28;20426;-61
2021/04/10 03:51:09;;;;;;;3.15;1.20;;;17.70;51.70;;;;;;10501795;28;20032;-61
2021/04/10 03:56:10;;;;;;;2.28;0.90;;;17.70;51.70;;;;;;10501752;28;20178;-61
2021/04/10 04:01:11;;;;;;;2.28;1.08;;;17.80;51.70;;;;;;10501861;28;20131;-61
2021/04/10 04:06:11;;;;;;;2.75;1.20;;;17.80;51.60;;;;;;10501466;28;20115;-61
2021/04/10 04:11:12;;;;;;;2.65;1.20;;;17.80;51.60;;;;;;10501133;28;20032;-62
2021/04/10 04:16:13;;;;;;;3.20;1.13;;;17.80;51.50;;;;;;10500722;28;20041;-62
2021/04/10 04:21:15;;;;;;;2.45;1.30;;;17.80;51.60;;;;;;10500058;28;20479;-61
2021/04/10 04:26:15;;;;;;;2.63;1.13;;;17.80;51.50;;;;;;10499815;28;20123;-61
2021/04/10 04:31:16;;;;;;;1.33;0.90;;;17.80;51.50;;;;;;10500581;28;20528;-61
2021/04/10 04:36:17;;;;;;;2.20;1.58;;;17.80;51.50;;;;;;10482020;28;20052;-62
2021/04/10 04:41:18;;;;;;;2.97;0.80;;;17.80;51.40;;;;;;10499704;28;20054;-62
2021/04/10 04:46:18;;;;;;;2.60;1.35;;;17.80;51.40;;;;;;10499140;28;20388;-61
2021/04/10 04:51:20;;;;;;;3.88;1.15;;;17.80;51.40;;;;;;10499367;28;20423;-61
2021/04/10 04:56:21;;;;;;;3.33;1.00;;;17.80;51.40;;;;;;10498053;28;20033;-61
2021/04/10 05:01:22;;;;;;;1.95;0.93;;;17.80;51.40;;;;;;10495967;28;20111;-61
2021/04/10 05:06:22;;;;;;;2.42;1.15;;;17.80;51.30;;;;;;10495931;28;20486;-61
2021/04/10 05:11:23;;;;;;;2.25;1.20;;;17.80;51.30;;;;;;10498749;28;20484;-62
2021/04/10 05:16:24;;;;;;;1.98;0.90;;;17.80;51.30;;;;;;10498636;28;20127;-61
2021/04/10 05:21:25;;;;;;;1.92;0.85;;;17.80;51.40;;;;;;10498166;28;20111;-61
2021/04/10 05:26:26;;;;;;;2.08;0.93;;;17.80;51.40;;;;;;10497434;28;20044;-63
2021/04/10 05:31:30;;;;;;;2.20;0.90;;;17.70;51.30;;;;;;10497880;28;20033;-62
2021/04/10 05:36:31;;;;;;;7.18;1.38;;;17.80;51.80;;;;;;10497647;28;20424;-63
2021/04/10 05:41:32;;;;;;;3.95;1.15;;;17.80;54.00;;;;;;10497697;28;20071;-63
2021/04/10 05:46:32;;;;;;;6.15;1.60;;;17.80;53.30;;;;;;10497004;28;20040;-62
2021/04/10 05:51:33;;;;;;;3.28;1.63;;;17.80;53.50;;;;;;10496692;28;20033;-64
2021/04/10 05:56:35;;;;;;;4.63;1.23;;;17.80;53.80;;;;;;10468436;28;20555;-65
2021/04/10 06:01:36;;;;;;;11.18;1.60;;;17.80;54.40;;;;;;10496359;28;20468;-67
2021/04/10 06:06:37;;;;;;;4.63;1.40;;;17.80;54.60;;;;;;10496634;28;20120;-68
2021/04/10 06:11:37;;;;;;;6.47;1.95;;;17.80;53.90;;;;;;10477531;28;20036;-68
2021/04/10 06:16:40;;;;;;;6.72;1.58;;;17.70;53.40;;;;;;10468943;28;20552;-66
2021/04/10 06:21:42;;;;;;;13.00;2.50;;;17.70;53.60;;;;;;10476807;28;20125;-65
2021/04/10 06:26:43;;;;;;;10.10;1.85;;;17.70;53.90;;;;;;10461151;28;20033;-64
2021/04/10 06:31:44;;;;;;;12.82;3.20;;;17.70;54.00;;;;;;10485582;28;20017;-62
2021/04/10 06:36:45;;;;;;;6.93;2.30;;;17.70;54.80;;;;;;10503333;28;20488;-66
2021/04/10 06:41:45;;;;;;;16.10;2.05;;;17.60;54.70;;;;;;10498800;28;20037;-67
2021/04/10 06:46:48;;;;;;;20.55;3.05;;;17.60;54.90;;;;;;10486543;28;20028;-67
2021/04/10 06:51:50;;;;;;;16.95;2.45;;;17.60;55.80;;;;;;10484757;28;20041;-68
2021/04/10 06:57:13;;;;;;;14.85;2.08;;;17.60;55.70;;;;;;10473597;28;20055;-68
2021/04/10 07:02:15;;;;;;;8.77;2.10;;;17.60;55.30;;;;;;10485557;28;20123;-68
2021/04/10 07:07:16;;;;;;;15.93;3.60;;;17.50;55.40;;;;;;10503306;28;20039;-67
2021/04/10 07:12:17;;;;;;;10.73;2.65;;;17.40;56.10;;;;;;10483433;28;20036;-65
2021/04/10 07:17:18;;;;;;;15.98;3.28;;;17.50;55.60;;;;;;10502688;28;20043;-66
2021/04/10 07:22:19;;;;;;;22.13;3.30;;;17.40;56.50;;;;;;10484628;28;20033;-62
2021/04/10 07:27:25;;;;;;;10.40;2.53;;;17.40;56.70;;;;;;10483183;28;20028;-64
2021/04/10 07:32:38;;;;;;;11.90;2.10;;;17.40;55.90;;;;;;10483494;28;20477;-63
2021/04/10 07:37:46;;;;;;;10.23;2.30;;;17.40;55.90;;;;;;10433689;28;20045;-66
2021/04/10 07:42:47;;;;;;;12.60;2.33;;;17.40;55.60;;;;;;10419810;28;20386;-65
2021/04/10 07:47:50;;;;;;;12.57;2.13;;;17.50;55.60;;;;;;10419291;28;20421;-66
2021/04/10 07:52:51;;;;;;;22.45;3.72;;;17.50;55.40;;;;;;10417635;28;20121;-66
2021/04/10 07:57:51;;;;;;;17.63;2.63;;;17.50;55.10;;;;;;10418645;28;20106;-65
2021/04/10 08:02:52;;;;;;;21.10;3.38;;;17.50;55.10;;;;;;10417825;28;20413;-62
2021/04/10 08:07:53;;;;;;;13.65;2.55;;;17.50;55.60;;;;;;10400130;28;20605;-63
2021/04/10 08:13:08;;;;;;;15.27;3.58;;;17.50;55.60;;;;;;10416306;28;20411;-66
2021/04/10 08:18:22;;;;;;;28.52;3.30;;;17.60;55.90;;;;;;10418507;28;20041;-65
2021/04/10 08:23:23;;;;;;;14.90;3.83;;;17.60;55.70;;;;;;10416063;28;20079;-68
2021/04/10 08:28:24;;;;;;;11.07;2.75;;;17.60;56.00;;;;;;10416376;28;20103;-62
2021/04/10 08:33:27;;;;;;;13.52;3.05;;;17.60;56.00;;;;;;10417362;28;20043;-67
2021/04/10 08:38:31;;;;;;;18.52;3.35;;;17.60;55.60;;;;;;10414729;28;20136;-65
2021/04/10 08:43:44;;;;;;;13.75;3.35;;;17.60;56.10;;;;;;10411942;28;20091;-66
2021/04/10 08:48:50;;;;;;;14.10;3.13;;;17.60;56.70;;;;;;10411236;28;20044;-62
2021/04/10 08:53:53;;;;;;;14.07;3.22;;;17.60;57.60;;;;;;10419019;28;20485;-64
2021/04/10 08:59:16;;;;;;;27.48;5.05;;;17.60;57.50;;;;;;10409796;28;20397;-65
2021/04/10 09:04:17;;;;;;;21.10;4.45;;;17.60;58.20;;;;;;10415367;28;20025;-64
2021/04/10 09:09:18;;;;;;;28.95;5.25;;;17.60;58.70;;;;;;10415395;28;20560;-62
2021/04/10 09:14:45;;;;;;;20.60;4.38;;;17.60;58.50;;;;;;10414971;28;20025;-61
2021/04/10 09:19:53;;;;;;;15.75;2.75;;;17.60;57.70;;;;;;10414795;28;20061;-62
2021/04/10 09:24:56;;;;;;;24.35;2.85;;;17.50;57.40;;;;;;10412490;28;20022;-62
2021/04/10 09:30:05;;;;;;;16.63;3.70;;;17.50;57.20;;;;;;10415390;28;20049;-62
2021/04/10 09:35:14;;;;;;;24.83;4.38;;;17.50;57.00;;;;;;10425135;28;20048;-63
2021/04/10 09:40:45;;;;;;;10.02;3.45;;;17.50;58.20;;;;;;10479471;28;20044;-63
2021/04/10 09:45:47;;;;;;;26.77;4.35;;;17.40;57.70;;;;;;10496287;28;20052;-66
2021/04/10 09:50:52;;;;;;;23.92;4.50;;;17.40;58.40;;;;;;10477823;28;20036;-62
2021/04/10 09:55:59;;;;;;;28.90;4.90;;;17.50;58.70;;;;;;10496995;28;20036;-63
2021/04/10 10:01:15;;;;;;;37.80;5.43;;;17.40;59.60;;;;;;10475119;28;20042;-63
2021/04/10 10:06:21;;;;;;;29.65;3.97;;;17.40;59.80;;;;;;10497133;28;20518;-57
2021/04/10 10:11:22;;;;;;;16.58;4.35;;;17.40;59.40;;;;;;10496624;28;20461;-65
2021/04/10 10:16:30;;;;;;;24.38;5.00;;;17.40;60.40;;;;;;10479474;28;20032;-60
2021/04/10 10:21:31;;;;;;;17.80;3.47;;;17.40;60.10;;;;;;10452360;28;20403;-64
2021/04/10 10:26:39;;;;;;;15.75;5.03;;;17.40;60.40;;;;;;10469932;28;20059;-65
2021/04/10 10:31:46;;;;;;;13.70;3.70;;;17.40;60.80;;;;;;10496578;28;20029;-64
2021/04/10 10:36:48;;;;;;;15.77;3.65;;;17.40;59.80;;;;;;10496497;28;20051;-65
2021/04/10 10:41:49;;;;;;;8.48;3.17;;;17.40;59.50;;;;;;10495392;28;20016;-63
2021/04/10 10:47:00;;;;;;;16.05;3.35;;;17.40;59.50;;;;;;10494565;28;20028;-64
2021/04/10 10:52:02;;;;;;;18.00;2.83;;;17.50;59.10;;;;;;10477892;28;20035;-58
2021/04/10 10:57:10;;;;;;;11.68;3.53;;;17.40;58.60;;;;;;10495821;28;20024;-60
2021/04/10 11:02:18;;;;;;;16.08;4.35;;;17.40;58.30;;;;;;10478456;28;20040;-65
2021/04/10 11:07:27;;;;;;;8.05;2.67;;;17.40;58.10;;;;;;10484587;28;20033;-61
2021/04/10 11:12:28;;;;;;;13.37;2.80;;;17.40;57.90;;;;;;10502343;28;20029;-61
2021/04/10 11:17:32;;;;;;;10.82;3.17;;;17.40;57.60;;;;;;10481191;28;20032;-62
2021/04/10 11:22:32;;;;;;;8.13;2.45;;;17.50;57.50;;;;;;10502858;28;20032;-61
2021/04/10 11:27:35;;;;;;;9.93;2.22;;;17.40;57.40;;;;;;10483952;28;20040;-61
2021/04/10 11:32:43;;;;;;;9.07;3.13;;;17.40;57.20;;;;;;10500304;28;20473;-61
2021/04/10 11:37:50;;;;;;;5.32;2.22;;;17.50;57.20;;;;;;10465880;28;20051;-61
2021/04/10 11:43:02;;;;;;;7.30;2.38;;;17.50;57.10;;;;;;10482320;28;20032;-61
2021/04/10 11:48:22;;;;;;;5.65;2.20;;;17.50;57.00;;;;;;10478623;28;20035;-62
2021/04/10 11:53:26;;;;;;;7.25;2.25;;;17.50;56.90;;;;;;10484670;28;20032;-61
2021/04/10 11:58:33;;;;;;;13.13;2.60;;;17.50;56.80;;;;;;10488265;28;20032;-62
2021/04/10 12:03:55;;;;;;;8.68;2.17;;;17.50;56.60;;;;;;10501202;28;20047;-62
2021/04/10 12:09:02;;;;;;;6.40;2.33;;;17.50;56.60;;;;;;10501394;28;20077;-62
2021/04/10 12:14:12;;;;;;;8.18;1.92;;;17.50;57.20;;;;;;10483197;28;20388;-61
2021/04/10 12:19:14;;;;;;;5.18;2.38;;;17.50;56.60;;;;;;10480022;28;20476;-61
2021/04/10 12:24:15;;;;;;;7.32;2.20;;;17.50;56.40;;;;;;10500708;28;20032;-61
2021/04/10 12:29:15;;;;;;;5.40;1.90;;;17.50;56.40;;;;;;10482278;28;20033;-61
2021/04/10 12:34:16;;;;;;;5.63;2.30;;;17.50;56.40;;;;;;10481899;28;20472;-61
2021/04/10 12:39:17;;;;;;;5.85;1.63;;;17.50;56.30;;;;;;10499960;28;20111;-61
2021/04/10 12:44:18;;;;;;;4.72;1.90;;;17.50;56.30;;;;;;10482123;28;20115;-61
2021/04/10 12:49:19;;;;;;;6.90;1.88;;;17.50;56.20;;;;;;10472814;28;20096;-61
2021/04/10 12:54:19;;;;;;;7.10;2.33;;;17.50;56.10;;;;;;10499088;28;20150;-62
2021/04/10 12:59:20;;;;;;;15.10;2.97;;;17.50;56.70;;;;;;10498853;28;20035;-62
2021/04/10 13:04:21;;;;;;;15.50;3.03;;;17.60;57.50;;;;;;10497564;28;20039;-62
2021/04/10 13:09:22;;;;;;;13.50;2.78;;;17.60;57.60;;;;;;10497656;28;20071;-65
2021/04/10 13:14:24;;;;;;;9.35;2.60;;;17.60;57.60;;;;;;10464407;28;20083;-67
2021/04/10 13:19:24;;;;;;;13.77;4.15;;;17.60;57.60;;;;;;10480397;28;20024;-66
2021/04/10 13:24:26;;;;;;;18.33;3.63;;;17.60;57.80;;;;;;10479945;28;20556;-65
2021/04/10 13:29:27;;;;;;;13.93;3.33;;;17.60;57.80;;;;;;10496567;28;20542;-67
2021/04/10 13:34:27;;;;;;;14.18;3.38;;;17.60;57.80;;;;;;10496964;28;20074;-64
2021/04/10 13:39:28;;;;;;;11.52;2.67;;;17.60;58.10;;;;;;10497475;28;20123;-67
2021/04/10 13:44:29;;;;;;;16.30;4.43;;;17.70;58.60;;;;;;10474746;28;20484;-67
2021/04/10 13:49:29;;;;;;;13.10;3.67;;;17.80;58.30;;;;;;10478411;28;20483;-61
2021/04/10 13:54:30;;;;;;;14.43;4.22;;;17.80;58.20;;;;;;10497207;28;20055;-64
2021/04/10 13:59:31;;;;;;;15.77;4.05;;;17.80;57.90;;;;;;10497068;28;20038;-63
2021/04/10 14:04:57;;;;;;;29.77;5.22;;;17.90;57.90;;;;;;10478660;28;20044;-63
2021/04/10 14:09:59;;;;;;;23.23;4.15;;;18.00;58.00;;;;;;10482683;28;20496;-61
2021/04/10 14:15:00;;;;;;;14.60;4.28;;;18.00;58.20;;;;;;10495992;28;20044;-61
2021/04/10 14:20:04;;;;;;;13.50;4.10;;;18.00;57.90;;;;;;10456441;28;20035;-60
2021/04/10 14:25:06;;;;;;;14.30;3.80;;;18.00;58.00;;;;;;10491891;28;20027;-57
2021/04/10 14:30:17;;;;;;;14.25;3.38;;;18.00;57.70;;;;;;10490515;28;20129;-58
2021/04/10 14:35:28;;;;;;;14.20;3.72;;;18.00;57.50;;;;;;10492807;28;20558;-58
2021/04/10 14:40:29;;;;;;;9.25;3.03;;;18.00;57.20;;;;;;10496893;28;20036;-58
2021/04/10 14:45:35;;;;;;;15.82;3.47;;;18.00;57.00;;;;;;10495807;28;20047;-58
2021/04/10 14:50:37;;;;;;;11.98;3.65;;;18.00;56.90;;;;;;10500047;28;20384;-59
2021/04/10 14:55:38;;;;;;;9.73;3.28;;;18.00;56.70;;;;;;10475864;28;20361;-59
2021/04/10 15:00:39;;;;;;;9.77;3.97;;;18.00;56.90;;;;;;10502292;28;20035;-59
2021/04/10 15:05:39;;;;;;;6.35;2.55;;;17.90;56.70;;;;;;10502467;28;20035;-58
2021/04/10 15:10:40;;;;;;;8.10;2.10;;;18.00;56.60;;;;;;10501566;28;20033;-61
2021/04/10 15:15:41;;;;;;;11.18;3.13;;;18.00;56.60;;;;;;10501155;28;20546;-58
2021/04/10 15:20:42;;;;;;;8.65;2.88;;;18.00;56.80;;;;;;10500344;28;20115;-60
2021/04/10 15:25:42;;;;;;;12.05;2.45;;;17.90;56.70;;;;;;10502662;28;20025;-60
2021/04/10 15:30:44;;;;;;;10.02;3.03;;;18.00;56.70;;;;;;10482578;28;20075;-60
2021/04/10 15:35:45;;;;;;;6.00;2.45;;;18.00;56.70;;;;;;10505950;28;20047;-60
2021/04/10 15:40:46;;;;;;;11.05;2.45;;;18.00;56.70;;;;;;10498802;28;20044;-60
2021/04/10 15:45:50;;;;;;;8.48;2.83;;;18.00;56.60;;;;;;10481631;28;20028;-61
2021/04/10 15:50:51;;;;;;;14.45;4.28;;;18.10;56.50;;;;;;10500435;28;20560;-56
2021/04/10 15:55:53;;;;;;;11.35;3.25;;;18.10;56.50;;;;;;10501724;28;20024;-59
2021/04/10 16:00:55;;;;;;;6.75;2.58;;;18.10;56.70;;;;;;10496396;28;20365;-60
2021/04/10 16:05:56;;;;;;;12.38;3.55;;;18.10;57.20;;;;;;10501149;28;20029;-60
2021/04/10 16:10:57;;;;;;;9.13;3.88;;;18.10;59.60;;;;;;10500927;28;20430;-61
2021/04/10 16:15:58;;;;;;;11.75;4.05;;;18.10;61.90;;;;;;10479510;28;20453;-60
2021/04/10 16:20:59;;;;;;;8.35;3.97;;;18.20;61.40;;;;;;10500344;28;20032;-60
2021/04/10 16:26:00;;;;;;;7.28;3.50;;;18.20;62.10;;;;;;10500738;28;20032;-60
2021/04/10 16:31:01;;;;;;;9.02;2.95;;;18.40;58.50;;;;;;10500363;28;20029;-59
2021/04/10 16:36:02;;;;;;;10.13;3.30;;;18.40;57.40;;;;;;10500120;28;20116;-62
2021/04/10 16:41:04;;;;;;;10.13;3.15;;;18.40;56.40;;;;;;10468590;28;20072;-60
2021/04/10 16:46:04;;;;;;;15.23;3.45;;;18.50;56.70;;;;;;10498555;28;20032;-61
2021/04/10 16:51:06;;;;;;;13.93;4.07;;;18.60;56.30;;;;;;10473093;28;20028;-62
2021/04/10 16:56:06;;;;;;;14.48;3.67;;;18.60;56.20;;;;;;10499882;28;20040;-61
2021/04/10 17:01:07;;;;;;;14.02;3.30;;;18.60;56.30;;;;;;10498326;28;20441;-62
2021/04/10 17:06:10;;;;;;;13.75;3.50;;;18.60;56.30;;;;;;10499352;28;20111;-60
2021/04/10 17:11:12;;;;;;;10.98;2.58;;;18.50;56.40;;;;;;10481246;28;20119;-61
2021/04/10 17:16:13;;;;;;;7.20;2.15;;;18.50;56.40;;;;;;10466418;28;20020;-60
2021/04/10 17:21:14;;;;;;;9.02;3.42;;;18.40;56.50;;;;;;10498339;28;20024;-61
2021/04/10 17:26:15;;;;;;;12.55;2.80;;;18.40;57.00;;;;;;10480600;28;20020;-61
2021/04/10 17:31:16;;;;;;;9.57;2.13;;;18.30;57.00;;;;;;10480243;28;20029;-63
2021/04/10 17:36:21;;;;;;;6.28;2.30;;;18.30;57.50;;;;;;10471122;28;20052;-57
2021/04/10 17:41:22;;;;;;;13.60;3.35;;;18.40;56.90;;;;;;10473939;28;20066;-59
2021/04/10 17:46:23;;;;;;;8.55;2.33;;;18.30;56.80;;;;;;10478959;28;20016;-63
2021/04/10 17:51:25;;;;;;;7.07;2.00;;;18.30;56.90;;;;;;10496836;28;20107;-60
2021/04/10 17:56:26;;;;;;;5.70;1.83;;;18.30;56.70;;;;;;10481462;28;20070;-60
2021/04/10 18:01:33;;;;;;;6.93;2.00;;;18.30;56.70;;;;;;10465557;28;20073;-61
2021/04/10 18:06:36;;;;;;;12.85;2.88;;;18.30;56.70;;;;;;10466425;28;20041;-59
2021/04/10 18:11:37;;;;;;;7.60;2.17;;;18.30;56.70;;;;;;10467249;28;20023;-61
2021/04/10 18:16:38;;;;;;;8.77;2.55;;;18.30;56.70;;;;;;10452561;28;20025;-60
2021/04/10 18:21:40;;;;;;;9.15;2.45;;;18.30;56.70;;;;;;10463851;28;20051;-61
2021/04/10 18:26:41;;;;;;;5.70;1.83;;;18.30;56.70;;;;;;10475790;28;20044;-62
2021/04/10 18:31:42;;;;;;;8.60;1.83;;;18.30;56.80;;;;;;10491765;28;20096;-62
2021/04/10 18:36:45;;;;;;;5.60;1.75;;;18.30;56.80;;;;;;10490859;28;20060;-62
2021/04/10 18:41:46;;;;;;;8.10;2.33;;;18.30;56.80;;;;;;10467766;28;20469;-61
2021/04/10 18:46:47;;;;;;;7.43;2.10;;;18.30;56.90;;;;;;10465588;28;20031;-62
2021/04/10 18:51:53;;;;;;;4.43;1.73;;;18.20;56.80;;;;;;10472361;28;20107;-62
2021/04/10 18:57:00;;;;;;;3.83;2.03;;;18.20;56.70;;;;;;10475668;28;20052;-62
2021/04/10 19:02:01;;;;;;;2.92;1.25;;;18.30;56.80;;;;;;10474267;28;20115;-63
2021/04/10 19:07:01;;;;;;;5.53;1.63;;;18.20;56.80;;;;;;10495259;28;20021;-63
2021/04/10 19:12:02;;;;;;;3.80;1.45;;;18.20;56.60;;;;;;10471814;28;20111;-62
2021/04/10 19:17:06;;;;;;;4.32;1.52;;;18.20;56.50;;;;;;10496155;28;20396;-62
2021/04/10 19:22:08;;;;;;;3.38;1.73;;;18.20;56.40;;;;;;10495633;28;20029;-62
2021/04/10 19:27:10;;;;;;;3.80;1.83;;;18.10;56.30;;;;;;10500524;28;20025;-62
2021/04/10 19:32:12;;;;;;;3.67;1.83;;;18.10;56.30;;;;;;10485143;28;20025;-62
2021/04/10 19:37:12;;;;;;;5.22;1.73;;;18.00;56.30;;;;;;10502608;28;20049;-62
2021/04/10 19:42:14;;;;;;;3.67;1.15;;;18.00;56.30;;;;;;10502084;28;20489;-62
2021/04/10 19:47:19;;;;;;;5.35;1.45;;;18.00;56.30;;;;;;10489126;28;20029;-62
2021/04/10 19:52:20;;;;;;;4.82;1.38;;;17.90;56.30;;;;;;10502062;28;20044;-62
2021/04/10 19:57:21;;;;;;;3.10;1.20;;;17.80;56.20;;;;;;10501860;28;20024;-62
2021/04/10 20:02:21;;;;;;;2.78;1.10;;;17.80;56.20;;;;;;10501832;28;20031;-62
2021/04/10 20:07:22;;;;;;;3.63;1.30;;;17.80;56.20;;;;;;10502121;28;20040;-62
2021/04/10 20:12:23;;;;;;;4.90;1.38;;;17.80;56.20;;;;;;10501460;28;20544;-62
2021/04/10 20:17:24;;;;;;;3.25;1.75;;;17.70;56.20;;;;;;10483630;28;20082;-62
2021/04/10 20:22:25;;;;;;;2.80;1.20;;;17.70;56.10;;;;;;10501186;28;20035;-62
2021/04/10 20:27:26;;;;;;;3.17;1.58;;;17.60;56.00;;;;;;10472049;28;20033;-62
2021/04/10 20:32:26;;;;;;;3.33;1.35;;;17.60;55.90;;;;;;10482625;28;20166;-62
2021/04/10 20:37:27;;;;;;;2.88;1.15;;;17.70;55.80;;;;;;10481525;28;20127;-62
2021/04/10 20:42:28;;;;;;;4.60;1.70;;;17.70;55.80;;;;;;10500349;28;20120;-62
2021/04/10 20:47:29;;;;;;;3.50;1.58;;;17.70;55.60;;;;;;10499747;28;20119;-62
2021/04/10 20:52:30;;;;;;;1.73;1.02;;;17.70;55.50;;;;;;10482069;28;20021;-62
2021/04/10 20:57:31;;;;;;;4.05;1.45;;;17.70;55.40;;;;;;10498883;28;20061;-62
2021/04/10 21:02:32;;;;;;;2.85;1.35;;;17.70;55.30;;;;;;10499283;28;20060;-63
2021/04/10 21:07:33;;;;;;;2.33;1.00;;;17.70;55.10;;;;;;10481377;28;20115;-63
2021/04/10 21:12:36;;;;;;;2.90;1.05;;;17.70;55.00;;;;;;10481084;28;20107;-63
2021/04/10 21:17:37;;;;;;;2.15;1.52;;;17.70;55.00;;;;;;10481030;28;20573;-62
2021/04/10 21:22:38;;;;;;;1.92;1.08;;;17.70;55.00;;;;;;10498489;28;20066;-62
2021/04/10 21:27:41;;;;;;;5.25;1.33;;;17.70;54.80;;;;;;10499554;28;20040;-62
2021/04/10 21:32:44;;;;;;;2.25;0.90;;;17.70;54.90;;;;;;10483786;28;20032;-62
2021/04/10 21:37:45;;;;;;;2.03;1.25;;;17.70;54.80;;;;;;10479948;28;20174;-63
2021/04/10 21:42:45;;;;;;;2.58;1.00;;;17.70;54.60;;;;;;10480615;28;20154;-62
2021/04/10 21:47:49;;;;;;;2.35;1.15;;;17.70;54.50;;;;;;10497485;28;20033;-63
2021/04/10 21:52:50;;;;;;;1.92;0.90;;;17.70;54.40;;;;;;10497627;28;20028;-62
2021/04/10 21:57:50;;;;;;;1.60;1.08;;;17.80;54.40;;;;;;10493568;28;20035;-62
2021/04/10 22:02:51;;;;;;;3.35;1.00;;;17.80;54.90;;;;;;10497329;28;20033;-62
2021/04/10 22:07:54;;;;;;;2.08;1.10;;;17.70;54.10;;;;;;10498020;28;20149;-62
2021/04/10 22:12:55;;;;;;;1.50;1.13;;;17.80;54.20;;;;;;10497204;28;20078;-62
2021/04/10 22:17:56;;;;;;;1.17;0.90;;;17.70;54.10;;;;;;10479144;28;20338;-62
2021/04/10 22:22:57;;;;;;;1.92;0.90;;;17.70;54.00;;;;;;10497202;28;20029;-62
2021/04/10 22:28:03;;;;;;;1.70;1.00;;;17.70;53.90;;;;;;10497029;28;20082;-62
2021/04/10 22:33:06;;;;;;;2.47;1.08;;;17.80;53.90;;;;;;10496923;28;20024;-62
2021/04/10 22:38:08;;;;;;;1.40;0.90;;;17.70;53.80;;;;;;10496444;28;20093;-62
2021/04/10 22:43:12;;;;;;;2.50;1.02;;;17.80;53.80;;;;;;10478632;28;20036;-63
2021/04/10 22:48:13;;;;;;;0.90;0.65;;;17.80;53.70;;;;;;10496441;28;20040;-63
2021/04/10 22:53:25;;;;;;;1.05;0.85;;;17.80;53.80;;;;;;10496492;28;20815;-63
2021/04/10 22:58:28;;;;;;;2.10;0.80;;;17.70;53.70;;;;;;10496430;28;20032;-63
2021/04/10 23:03:28;;;;;;;1.75;0.98;;;17.70;53.70;;;;;;10502175;28;20105;-62
2021/04/10 23:08:29;;;;;;;2.45;0.80;;;17.70;53.60;;;;;;10504166;28;20066;-62
2021/04/10 23:13:31;;;;;;;1.00;0.70;;;17.70;53.60;;;;;;10485535;28;20024;-62
2021/04/10 23:18:31;;;;;;;1.58;1.00;;;17.70;53.50;;;;;;10504139;28;20506;-62
2021/04/10 23:23:32;;;;;;;0.98;0.80;;;17.70;53.40;;;;;;10485171;28;20043;-62
2021/04/10 23:28:33;;;;;;;2.53;0.90;;;17.70;53.30;;;;;;10502633;28;20036;-62
2021/04/10 23:33:34;;;;;;;2.20;0.77;;;17.80;53.30;;;;;;10502516;28;20414;-62
2021/04/10 23:38:35;;;;;;;1.08;0.70;;;17.80;53.20;;;;;;10483689;28;20431;-62
2021/04/10 23:43:36;;;;;;;1.30;0.68;;;17.80;53.20;;;;;;10502387;28;20115;-63
2021/04/10 23:48:36;;;;;;;1.35;0.68;;;17.70;53.10;;;;;;10484471;28;20035;-59
2021/04/10 23:53:37;;;;;;;0.47;0.47;;;17.70;53.10;;;;;;10501840;28;20106;-59
2021/04/10 23:58:38;;;;;;;2.47;0.80;;;17.70;53.20;;;;;;10501296;28;20103;-60
